»·PEaware :: N5939V 67L-KFAT

N5939V :: 67L-KFAT

FLIGHT INFORMATION

Flight Status: Arrived
Operator: Privately registered:
United States
More flights under this callsign
Pilot: Anonymous 30260 (30260)
Aircraft: SOCATA TBM-900
(TBM9)
More flights by this aircraft type
Origin: 67L Mesquite
United States
Destination: KFAT Fresno Yosemite Intl
United States
More flights between these airports :: More routes between these airports
Route: MMM V394 LAS JEDNA Q158 BIKKR TTE ALTTA9
File this flight plan on PilotEdge
Remarks:
Altitude:
(Current/Filed)
20,000ft
Speed:
(Current/Filed)
299kts
Departed: 22-Sep-20 04:53 PM
Arrived: 22-Sep-20 06:06 PM
Distance/Time
Traveled:
272nm/1:13
Distance/Time
To Go:
Arrived

Flight Plot

Page will automatically refresh every two minutes.

Flight plan parsing failed; only flown route is shown


Map Options




Map Legend


Flown Route
Filed Route
Departure Airport
Arrival Airport
Navaid (VOR, NDB)
Fix

Horizontal Profiles

Position Reports

Time Latitude Longitude Heading Altitude Ground
Speed
22-Sep-20 16:39 36.834507 -114.056393 210 1978ft 0kts
22-Sep-20 16:40 36.834507 -114.056393 210 1978ft 0kts
22-Sep-20 16:41 36.834507 -114.056393 210 1978ft 0kts
22-Sep-20 16:42 36.834507 -114.056393 210 1978ft 0kts
22-Sep-20 16:43 36.834507 -114.056393 210 1978ft 0kts
22-Sep-20 16:44 36.834507 -114.056393 210 1978ft 0kts
22-Sep-20 16:45 36.834507 -114.056393 210 1978ft 0kts
22-Sep-20 16:46 36.834507 -114.056393 210 1978ft 0kts
22-Sep-20 16:47 36.834507 -114.056393 210 1978ft 0kts
22-Sep-20 16:48 36.834506 -114.056393 210 1978ft 0kts
22-Sep-20 16:49 36.834409 -114.056334 121 1978ft 4kts
22-Sep-20 16:50 36.836811 -114.054251 29 1978ft 13kts
22-Sep-20 16:51 36.839213 -114.051722 132 1978ft 7kts
22-Sep-20 16:52 36.821309 -114.065100 212 2687ft 120kts
22-Sep-20 16:53 36.789175 -114.092359 246 4975ft 136kts
22-Sep-20 16:54 36.783212 -114.142327 262 7464ft 135kts
22-Sep-20 16:55 36.777327 -114.200055 262 8970ft 191kts
22-Sep-20 16:56 36.769322 -114.273754 252 10647ft 199kts
22-Sep-20 16:57 36.728210 -114.330611 227 12410ft 204kts
22-Sep-20 16:58 36.684561 -114.387116 227 14035ft 208kts
22-Sep-20 16:59 36.640088 -114.444565 228 15752ft 210kts
22-Sep-20 17:00 36.595935 -114.501493 228 17345ft 213kts
22-Sep-20 17:01 36.550959 -114.559382 228 18935ft 215kts
22-Sep-20 17:02 36.504940 -114.618541 228 19973ft 238kts
22-Sep-20 17:03 36.450966 -114.687720 227 19971ft 266kts
22-Sep-20 17:04 36.393927 -114.760689 227 19965ft 274kts
22-Sep-20 17:06 36.335298 -114.835528 227 19962ft 276kts
22-Sep-20 17:07 36.276246 -114.910729 227 19956ft 276kts
22-Sep-20 17:08 36.219686 -114.982605 227 19954ft 277kts
22-Sep-20 17:09 36.165742 -115.051012 227 19956ft 278kts
22-Sep-20 17:10 36.111638 -115.121544 236 19961ft 278kts
22-Sep-20 17:11 36.108992 -115.214579 293 19982ft 285kts
22-Sep-20 17:12 36.151544 -115.305453 298 19966ft 288kts
22-Sep-20 17:13 36.195910 -115.395888 298 19961ft 288kts
22-Sep-20 17:14 36.238196 -115.482219 298 19969ft 288kts
22-Sep-20 17:15 36.283011 -115.573947 298 19993ft 287kts
22-Sep-20 17:16 36.325610 -115.668483 284 20020ft 284kts
22-Sep-20 17:17 36.349207 -115.770624 283 20027ft 282kts
22-Sep-20 17:18 36.370787 -115.865779 283 20027ft 281kts
22-Sep-20 17:19 36.391911 -115.959329 283 20027ft 281kts
22-Sep-20 17:20 36.412967 -116.052968 283 20027ft 281kts
22-Sep-20 17:21 36.434890 -116.150827 283 20027ft 281kts
22-Sep-20 17:22 36.457644 -116.252862 283 20026ft 281kts
22-Sep-20 17:22 36.476688 -116.338884 283 20026ft 281kts
22-Sep-20 17:24 36.503304 -116.459723 283 20025ft 281kts
22-Sep-20 17:25 36.525881 -116.562733 283 20025ft 281kts
22-Sep-20 17:25 36.544400 -116.647553 283 20024ft 281kts
22-Sep-20 17:27 36.560325 -116.765751 255 20020ft 278kts
22-Sep-20 17:27 36.539493 -116.847929 250 20010ft 278kts
22-Sep-20 17:28 36.512235 -116.946354 251 19997ft 278kts
22-Sep-20 17:29 36.485540 -117.042177 252 19991ft 278kts
22-Sep-20 17:30 36.458125 -117.140310 253 19990ft 280kts
22-Sep-20 17:31 36.430993 -117.237092 253 19990ft 281kts
22-Sep-20 17:32 36.403167 -117.335917 253 19989ft 281kts
22-Sep-20 17:33 36.375328 -117.434408 253 19989ft 281kts
22-Sep-20 17:34 36.347649 -117.532006 253 19988ft 281kts
22-Sep-20 17:35 36.319805 -117.629824 253 19988ft 281kts
22-Sep-20 17:36 36.292341 -117.725977 253 19993ft 283kts
22-Sep-20 17:37 36.264601 -117.822758 253 19992ft 284kts
22-Sep-20 17:38 36.237541 -117.916817 253 19991ft 284kts
22-Sep-20 17:39 36.210519 -118.010439 253 19991ft 284kts
22-Sep-20 17:40 36.182665 -118.106794 253 19993ft 284kts
22-Sep-20 17:41 36.154014 -118.205206 253 20007ft 282kts
22-Sep-20 17:42 36.126730 -118.298736 253 20016ft 282kts
22-Sep-20 17:43 36.099397 -118.392159 253 20016ft 281kts
22-Sep-20 17:44 36.072266 -118.484562 253 20019ft 281kts
22-Sep-20 17:45 36.045425 -118.575676 253 20025ft 281kts
22-Sep-20 17:46 36.018586 -118.666504 252 20029ft 281kts
22-Sep-20 17:47 35.991656 -118.757340 252 20029ft 282kts
22-Sep-20 17:48 35.964552 -118.848510 252 20029ft 282kts
22-Sep-20 17:49 35.937876 -118.943092 260 18575ft 310kts
22-Sep-20 17:50 35.964212 -119.040334 313 16357ft 312kts
22-Sep-20 17:51 36.042794 -119.083070 338 14143ft 307kts
22-Sep-20 17:52 36.117771 -119.125047 332 12485ft 301kts
22-Sep-20 17:53 36.193428 -119.172046 332 9608ft 289kts
22-Sep-20 17:54 36.263610 -119.215437 332 8539ft 280kts
22-Sep-20 17:55 36.333501 -119.258638 332 7249ft 276kts
22-Sep-20 17:56 36.401654 -119.300890 332 6071ft 270kts
22-Sep-20 17:57 36.470245 -119.343532 332 4940ft 265kts
22-Sep-20 17:58 36.531890 -119.400956 312 4090ft 261kts
22-Sep-20 17:59 36.582575 -119.467841 312 4089ft 247kts
22-Sep-20 18:00 36.632915 -119.533365 312 4090ft 244kts
22-Sep-20 18:01 36.681597 -119.593325 326 4081ft 246kts
22-Sep-20 18:02 36.730963 -119.631817 296 2949ft 174kts
22-Sep-20 18:03 36.749493 -119.669706 304 1079ft 108kts
22-Sep-20 18:04 36.763786 -119.694651 304 568ft 84kts
22-Sep-20 18:05 36.773887 -119.712473 308 329ft 22kts
22-Sep-20 18:06 36.776436 -119.718024 279 331ft 12kts
22-Sep-20 18:07 36.776472 -119.720376 230 331ft 12kts
22-Sep-20 18:08 36.774215 -119.721287 215 328ft 8kts
22-Sep-20 18:09 36.773661 -119.721873 343 328ft 0kts

Navigation Log

Ident Type
Flight plan parsing failed, navigation log unavailable